Summit, North Carolina
Current Conditions -  °F | °C
As of 1:54 PM on Thursday 30 Oct 2014 (Local Time) from KGSO Reporting Station
Few Clouds Few Clouds  
Wind Chill: 63°   Ceiling: Unl
Heat Index: 63°   Visibility: 10mi
Dew Point: 36°   Wind: 5mph
Humidity: 37%   Direction: NA
Pressure: 30.02"   Gusts: NA
Location:  36.1157°N, 79.7378°W
Report Text: KGSO 301754Z VRB04KT 10SM FEW060 17/02 A3002 RMK AO2 SLP160 T01720022 10172 20089 58020
Loading
Personal Weather Stations






























Interactive Weather Map
Tropical Storm Tracking
New forecast layout! Learn more

10-Day Weather Forecast

Advertisements
Track Severe Weather on mobile